createdAt,value
2022-11-21T00:01:17.962Z,1.43
2022-11-21T00:03:44.846Z,1.33
2022-11-21T00:06:11.556Z,1.33
2022-11-21T00:08:38.196Z,1.30
2022-11-21T00:11:04.852Z,1.28
2022-11-21T00:13:31.474Z,1.31
2022-11-21T00:16:04.133Z,1.38
2022-11-21T00:18:30.789Z,1.42
2022-11-21T00:20:57.433Z,1.43
2022-11-21T00:23:28.303Z,1.43
2022-11-21T00:25:58.196Z,1.45
2022-11-21T00:28:24.819Z,1.54
2022-11-21T00:30:51.450Z,1.56
2022-11-21T00:33:18.185Z,1.59
2022-11-21T00:35:44.818Z,1.74
2022-11-21T00:38:11.461Z,1.69
2022-11-21T00:40:38.155Z,1.62
2022-11-21T00:43:04.760Z,1.70
2022-11-21T00:45:31.324Z,1.66
2022-11-21T00:47:57.946Z,1.70
2022-11-21T00:50:24.592Z,1.70
2022-11-21T00:52:56.397Z,1.67
2022-11-21T00:55:23.788Z,1.75
2022-11-21T00:57:50.777Z,1.74
2022-11-21T01:00:18.363Z,1.78
2022-11-21T01:02:45.088Z,1.78
2022-11-21T01:05:11.713Z,1.78
2022-11-21T01:07:38.364Z,1.79
2022-11-21T01:10:05.699Z,1.83
2022-11-21T01:12:32.389Z,1.88
2022-11-21T01:14:59.030Z,1.90
2022-11-21T01:17:25.633Z,1.87
2022-11-21T01:19:52.262Z,1.87
2022-11-21T01:22:18.855Z,1.90
2022-11-21T01:24:46.601Z,1.88
2022-11-21T01:27:13.253Z,1.87
2022-11-21T01:29:39.893Z,1.96
2022-11-21T01:32:07.136Z,2.07
2022-11-21T01:34:33.993Z,2.27
2022-11-21T01:37:01.351Z,2.47
2022-11-21T01:39:29.087Z,2.69
2022-11-21T01:41:56.766Z,2.71
2022-11-21T01:44:26.565Z,2.78
2022-11-21T01:46:53.668Z,2.80
2022-11-21T01:49:25.061Z,2.86
2022-11-21T01:52:14.048Z,2.93
2022-11-21T01:54:51.581Z,2.96
2022-11-21T01:57:19.230Z,2.98
2022-11-21T01:59:57.019Z,2.94
2022-11-21T02:02:29.576Z,3.08
2022-11-21T02:04:57.722Z,3.13
2022-11-21T02:07:26.452Z,3.11
2022-11-21T02:09:57.511Z,3.14
2022-11-21T02:12:31.697Z,3.15
2022-11-21T02:14:59.440Z,3.05
2022-11-21T02:17:29.393Z,3.12
2022-11-21T02:20:00.771Z,3.08
2022-11-21T02:22:36.865Z,3.11
2022-11-21T02:25:10.188Z,3.02
2022-11-21T02:27:36.931Z,3.08
2022-11-21T02:30:05.823Z,3.20
2022-11-21T02:32:36.729Z,3.16
2022-11-21T02:35:04.221Z,3.23
2022-11-21T02:37:31.789Z,3.36
2022-11-21T02:40:01.195Z,3.49
2022-11-21T02:42:33.243Z,3.50
2022-11-21T02:45:12.196Z,3.56
2022-11-21T02:47:40.419Z,3.61
2022-11-21T02:50:19.261Z,3.63
2022-11-21T02:52:45.945Z,3.58
2022-11-21T02:55:13.584Z,3.61
2022-11-21T02:57:40.204Z,3.63
2022-11-21T03:00:08.582Z,3.69
2022-11-21T03:02:35.695Z,3.65
2022-11-21T03:05:03.165Z,3.65
2022-11-21T03:07:30.155Z,3.62
2022-11-21T03:09:57.301Z,3.56
2022-11-21T03:12:23.986Z,3.52
2022-11-21T03:14:50.664Z,3.48
2022-11-21T03:17:17.414Z,3.41
2022-11-21T03:19:44.210Z,3.50
2022-11-21T03:22:12.903Z,3.55
2022-11-21T03:24:39.559Z,3.60
2022-11-21T03:27:06.286Z,3.61
2022-11-21T03:29:33.072Z,3.61
2022-11-21T03:31:59.818Z,3.63
2022-11-21T03:34:26.659Z,3.59
2022-11-21T03:36:53.896Z,3.60
2022-11-21T03:39:20.685Z,3.57
2022-11-21T03:41:49.544Z,3.53
2022-11-21T03:44:16.397Z,3.61
2022-11-21T03:46:45.928Z,3.73
2022-11-21T03:49:14.310Z,3.72
2022-11-21T03:51:41.041Z,3.63
2022-11-21T03:54:08.144Z,3.64
2022-11-21T03:56:35.056Z,3.67
2022-11-21T03:59:02.376Z,3.56
2022-11-21T04:01:32.527Z,3.58
2022-11-21T04:04:01.963Z,3.63
2022-11-21T04:06:31.067Z,3.61
2022-11-21T04:08:57.875Z,3.54
2022-11-21T04:11:24.723Z,3.42
2022-11-21T04:13:52.317Z,3.36
2022-11-21T04:16:19.945Z,3.29
2022-11-21T04:20:40.265Z,3.24
2022-11-21T04:23:07.427Z,3.20
2022-11-21T04:25:34.348Z,3.31
2022-11-21T04:28:04.943Z,3.22
2022-11-21T04:30:34.920Z,3.11
2022-11-21T04:33:01.794Z,3.06
2022-11-21T04:35:28.563Z,3.04
2022-11-21T04:37:55.244Z,2.99
2022-11-21T04:40:22.179Z,2.99
2022-11-21T04:42:49.063Z,2.96
2022-11-21T04:45:16.849Z,2.89
2022-11-21T04:47:45.745Z,2.88
2022-11-21T04:50:15.314Z,2.83
2022-11-21T04:52:42.373Z,2.79
2022-11-21T04:55:10.251Z,2.73
2022-11-21T04:57:36.914Z,2.72
2022-11-21T05:00:04.419Z,2.70
2022-11-21T05:02:32.709Z,2.75
2022-11-21T05:04:59.405Z,2.73
2022-11-21T05:07:26.061Z,2.66
2022-11-21T05:09:52.712Z,2.66
2022-11-21T05:12:34.747Z,2.75
2022-11-21T05:15:01.534Z,2.64
2022-11-21T05:17:29.267Z,2.68
2022-11-21T05:19:56.008Z,2.66
2022-11-21T05:22:22.739Z,2.57
2022-11-21T05:24:49.355Z,2.64
2022-11-21T05:27:16.052Z,2.62
2022-11-21T05:29:42.722Z,2.60
2022-11-21T05:32:09.582Z,2.60
2022-11-21T05:34:36.198Z,2.61
2022-11-21T05:37:02.864Z,2.60
2022-11-21T05:39:29.636Z,2.61
2022-11-21T05:42:01.335Z,2.60
2022-11-21T05:44:29.865Z,2.55
2022-11-21T05:46:56.691Z,2.56
2022-11-21T05:49:23.328Z,2.57
2022-11-21T05:51:50.004Z,2.59
2022-11-21T05:54:16.791Z,2.57
2022-11-21T05:56:43.444Z,2.58
2022-11-21T05:59:11.383Z,2.51
2022-11-21T06:01:53.856Z,2.46
2022-11-21T06:04:20.622Z,2.47
2022-11-21T06:06:47.289Z,2.53
2022-11-21T06:09:13.992Z,2.57
2022-11-21T06:11:40.566Z,2.59
2022-11-21T06:14:07.321Z,2.61
2022-11-21T06:16:33.945Z,2.63
2022-11-21T06:19:00.575Z,2.63
2022-11-21T06:21:29.592Z,2.70
2022-11-21T06:23:57.983Z,2.68
2022-11-21T06:26:26.783Z,2.63
2022-11-21T06:28:54.943Z,2.62
2022-11-21T06:31:23.753Z,2.59
2022-11-21T06:33:53.382Z,2.57
2022-11-21T06:36:20.407Z,2.57
2022-11-21T06:38:47.508Z,2.52
2022-11-21T06:41:17.744Z,2.57
2022-11-21T06:43:45.365Z,2.56
2022-11-21T06:46:12.795Z,2.53
2022-11-21T06:48:40.454Z,2.57
2022-11-21T06:51:13.731Z,2.58
2022-11-21T06:53:40.344Z,2.63
2022-11-21T06:56:07.057Z,2.65
2022-11-21T06:58:34.002Z,2.72
2022-11-21T07:01:05.748Z,2.73
2022-11-21T07:03:32.733Z,2.81
2022-11-21T07:06:01.838Z,2.77
2022-11-21T07:08:30.038Z,2.74
2022-11-21T07:11:24.011Z,2.73
2022-11-21T07:13:48.171Z,2.79
2022-11-21T07:16:15.042Z,2.78
2022-11-21T07:18:42.407Z,2.75
2022-11-21T07:21:09.635Z,2.80
2022-11-21T07:23:36.320Z,2.86
2022-11-21T07:26:05.574Z,2.89
2022-11-21T07:28:33.110Z,2.89
2022-11-21T07:31:01.734Z,2.93
2022-11-21T07:33:28.540Z,2.99
2022-11-21T07:35:57.653Z,3.00
2022-11-21T07:38:25.707Z,3.02
2022-11-21T07:40:53.122Z,3.06
2022-11-21T07:43:19.823Z,3.10
2022-11-21T07:45:46.446Z,3.12
2022-11-21T07:48:13.144Z,3.15
2022-11-21T07:50:40.172Z,3.20
2022-11-21T07:53:10.165Z,3.19
2022-11-21T07:55:40.543Z,3.26
2022-11-21T07:58:10.256Z,3.41
2022-11-21T08:00:39.626Z,3.51
2022-11-21T08:03:07.242Z,3.68
2022-11-21T08:05:38.644Z,3.73
2022-11-21T08:08:06.930Z,3.82
2022-11-21T08:10:33.828Z,4.01
2022-11-21T08:13:00.434Z,4.11
2022-11-21T08:15:27.339Z,4.23
2022-11-21T08:17:53.992Z,4.34
2022-11-21T08:20:20.632Z,4.50
2022-11-21T08:22:47.313Z,4.55
2022-11-21T08:25:13.996Z,4.58
2022-11-21T08:27:42.264Z,4.65
2022-11-21T08:30:12.888Z,4.65
2022-11-21T08:32:39.620Z,4.68
2022-11-21T08:35:06.774Z,4.76
2022-11-21T08:37:33.412Z,4.84
2022-11-21T08:40:00.790Z,4.88
2022-11-21T08:42:27.917Z,4.87
2022-11-21T08:44:54.559Z,4.85
2022-11-21T08:47:21.348Z,4.81
2022-11-21T08:49:48.469Z,4.74
2022-11-21T08:52:17.411Z,4.71
2022-11-21T08:54:45.153Z,4.53
2022-11-21T08:57:12.457Z,4.42
2022-11-21T08:59:39.219Z,4.23
2022-11-21T09:02:06.079Z,4.18
2022-11-21T09:04:32.791Z,4.13
2022-11-21T09:06:59.768Z,3.98
2022-11-21T09:09:26.492Z,3.98
2022-11-21T09:11:53.143Z,3.92
2022-11-21T09:14:35.086Z,3.89
2022-11-21T09:17:17.122Z,3.88
2022-11-21T09:19:43.765Z,3.89
2022-11-21T09:22:10.434Z,3.83
2022-11-21T09:24:37.164Z,3.93
2022-11-21T09:27:03.846Z,3.96
2022-11-21T09:29:30.454Z,3.94
2022-11-21T09:31:57.109Z,3.99
2022-11-21T09:34:23.702Z,4.40
2022-11-21T09:36:50.325Z,4.97
2022-11-21T09:39:17.983Z,5.30
2022-11-21T09:42:00.965Z,5.32
2022-11-21T09:44:48.511Z,5.35
2022-11-21T09:47:21.394Z,5.30
2022-11-21T09:49:54.052Z,5.23
2022-11-21T09:52:24.934Z,5.11
2022-11-21T09:54:58.379Z,5.08
2022-11-21T09:57:30.692Z,5.05
2022-11-21T10:00:03.305Z,5.10
2022-11-21T10:02:29.980Z,5.09
2022-11-21T10:05:00.822Z,5.09
2022-11-21T10:07:32.377Z,5.19
2022-11-21T10:10:20.940Z,5.24
2022-11-21T10:13:10.041Z,5.29
2022-11-21T10:15:57.481Z,5.26
2022-11-21T10:18:42.426Z,5.31
2022-11-21T10:21:26.102Z,5.41
2022-11-21T10:24:08.931Z,5.62
2022-11-21T10:27:11.009Z,5.60
2022-11-21T10:29:46.483Z,5.66
2022-11-21T10:32:31.569Z,5.63
2022-11-21T10:35:02.869Z,5.62
2022-11-21T10:37:33.098Z,5.54
2022-11-21T10:40:16.176Z,5.70
2022-11-21T10:42:58.151Z,5.70
2022-11-21T10:45:25.376Z,5.68
2022-11-21T10:47:53.298Z,5.71
2022-11-21T10:50:43.961Z,5.71
2022-11-21T10:53:35.298Z,5.63
2022-11-21T10:56:14.574Z,5.66
2022-11-21T10:58:50.601Z,5.62
2022-11-21T11:01:27.748Z,5.62
2022-11-21T11:06:57.238Z,5.62
2022-11-21T11:09:32.744Z,5.58
2022-11-21T11:12:48.165Z,5.51
2022-11-21T11:15:18.704Z,5.40
2022-11-21T11:17:58.097Z,5.23
2022-11-21T11:20:41.735Z,5.13
2022-11-21T11:23:16.831Z,5.05
2022-11-21T11:25:48.290Z,5.03
2022-11-21T11:28:15.114Z,4.93
2022-11-21T11:30:43.536Z,5.03
2022-11-21T11:33:34.271Z,5.03
2022-11-21T11:36:13.773Z,4.90
2022-11-21T11:38:45.106Z,4.95
2022-11-21T11:41:25.454Z,4.94
2022-11-21T11:44:24.513Z,4.95
2022-11-21T11:47:20.722Z,4.97
2022-11-21T11:50:14.810Z,5.00
2022-11-21T11:52:48.337Z,5.03
2022-11-21T11:55:21.987Z,5.00
2022-11-21T11:57:52.997Z,5.11
2022-11-21T12:00:24.394Z,5.31
2022-11-21T12:03:13.075Z,5.22
2022-11-21T12:05:54.958Z,5.18
2022-11-21T12:08:41.511Z,5.14
2022-11-21T12:11:38.033Z,5.01
2022-11-21T12:14:34.922Z,5.10
2022-11-21T12:17:06.650Z,5.05
2022-11-21T12:19:35.266Z,5.00
2022-11-21T12:22:06.379Z,5.09
2022-11-21T12:24:39.838Z,4.99
2022-11-21T12:27:31.164Z,4.94
2022-11-21T12:30:09.052Z,4.88
2022-11-21T12:32:51.143Z,4.88
2022-11-21T12:35:48.474Z,5.02
2022-11-21T12:38:29.513Z,5.10
2022-11-21T12:41:46.688Z,5.20
2022-11-21T12:44:19.745Z,5.26
2022-11-21T12:47:11.289Z,5.22
2022-11-21T12:49:59.740Z,5.35
2022-11-21T12:52:48.981Z,5.29
2022-11-21T12:55:35.095Z,5.39
2022-11-21T12:58:13.898Z,5.56
2022-11-21T13:01:06.158Z,5.69
2022-11-21T13:03:39.153Z,5.75
2022-11-21T13:06:13.180Z,5.70
2022-11-21T13:08:41.035Z,5.76
2022-11-21T13:11:42.742Z,5.87
2022-11-21T13:14:19.535Z,5.95
2022-11-21T13:16:55.252Z,6.07
2022-11-21T13:19:42.459Z,6.10
2022-11-21T13:22:48.906Z,6.20
2022-11-21T13:25:32.002Z,6.38
2022-11-21T13:28:13.915Z,6.64
2022-11-21T13:30:56.922Z,6.96
2022-11-21T13:33:39.921Z,7.30
2022-11-21T13:36:36.998Z,7.44
2022-11-21T13:39:03.794Z,7.65
2022-11-21T13:42:19.942Z,7.76
2022-11-21T13:44:47.498Z,7.88
2022-11-21T13:47:31.009Z,8.10
2022-11-21T13:50:23.698Z,8.35
2022-11-21T13:53:20.924Z,8.92
2022-11-21T13:55:58.048Z,9.51
2022-11-21T13:58:37.667Z,10.34
2022-11-21T14:01:34.846Z,11.43
2022-11-21T14:04:17.691Z,12.71
2022-11-21T14:06:44.930Z,13.30
2022-11-21T14:09:27.512Z,14.14
2022-11-21T14:12:03.886Z,14.28
2022-11-21T14:14:37.165Z,14.19
2022-11-21T14:17:27.822Z,14.30
2022-11-21T14:19:56.697Z,14.26
2022-11-21T14:22:34.751Z,12.86
2022-11-21T14:25:07.867Z,11.80
2022-11-21T14:27:44.924Z,10.93
2022-11-21T14:30:42.455Z,10.23
2022-11-21T14:33:26.202Z,9.79
2022-11-21T14:36:06.116Z,9.28
2022-11-21T14:38:40.174Z,8.86
2022-11-21T14:41:28.829Z,8.57
2022-11-21T14:44:17.095Z,8.25
2022-11-21T14:46:47.273Z,8.07
2022-11-21T14:49:16.284Z,7.84
2022-11-21T14:51:50.170Z,7.63
2022-11-21T14:54:23.629Z,7.49
2022-11-21T14:56:59.358Z,7.25
2022-11-21T14:59:31.667Z,7.04
2022-11-21T15:02:03.262Z,6.88
2022-11-21T15:04:33.681Z,6.70
2022-11-21T15:07:00.896Z,6.53
2022-11-21T15:10:26.058Z,6.40
2022-11-21T15:12:24.225Z,6.22
2022-11-21T15:14:54.588Z,6.00
2022-11-21T15:17:24.353Z,5.91
2022-11-21T15:20:16.748Z,5.70
2022-11-21T15:22:43.619Z,5.49
2022-11-21T15:25:20.558Z,5.42
2022-11-21T15:27:49.122Z,5.33
2022-11-21T15:30:25.695Z,5.32
2022-11-21T15:33:09.013Z,5.24
2022-11-21T15:35:40.544Z,5.13
2022-11-21T15:38:32.680Z,5.05
2022-11-21T15:41:14.583Z,4.86
2022-11-21T15:43:48.215Z,4.68
2022-11-21T15:46:42.493Z,4.58
2022-11-21T15:49:32.068Z,4.51
2022-11-21T15:52:13.591Z,4.45
2022-11-21T15:54:40.218Z,4.37
2022-11-21T15:57:08.217Z,4.16
2022-11-21T15:59:34.941Z,4.00
2022-11-21T16:02:01.557Z,3.91
2022-11-21T16:04:28.160Z,3.81
2022-11-21T16:06:55.301Z,3.81
2022-11-21T16:09:22.060Z,3.77
2022-11-21T16:11:48.889Z,3.56
2022-11-21T16:14:17.090Z,3.34
2022-11-21T16:16:44.481Z,3.47
2022-11-21T16:19:12.587Z,3.46
2022-11-21T16:21:39.699Z,3.48
2022-11-21T16:24:06.723Z,3.48
2022-11-21T16:26:33.578Z,3.50
2022-11-21T16:29:01.650Z,3.54
2022-11-21T16:31:30.677Z,3.54
2022-11-21T16:34:03.540Z,3.27
2022-11-21T16:36:31.604Z,3.12
2022-11-21T16:39:05.129Z,3.08
2022-11-21T16:41:35.516Z,3.00
2022-11-21T16:44:02.304Z,2.96
2022-11-21T16:46:29.239Z,2.96
2022-11-21T16:49:01.618Z,2.95
2022-11-21T16:51:29.500Z,2.96
2022-11-21T16:53:57.369Z,2.95
2022-11-21T16:56:24.813Z,2.94
2022-11-21T16:58:51.444Z,2.97
2022-11-21T17:01:21.442Z,2.92
2022-11-21T17:03:49.666Z,2.85
2022-11-21T17:06:20.329Z,2.84
2022-11-21T17:08:47.318Z,2.74
2022-11-21T17:11:15.530Z,2.76
2022-11-21T17:13:43.123Z,2.78
2022-11-21T17:16:11.442Z,2.78
2022-11-21T17:18:38.627Z,2.74
2022-11-21T17:21:09.098Z,2.76
2022-11-21T17:23:37.326Z,2.73
2022-11-21T17:26:06.211Z,2.78
2022-11-21T17:28:33.506Z,2.76
2022-11-21T17:31:00.573Z,2.76
2022-11-21T17:33:27.279Z,2.75
2022-11-21T17:35:53.906Z,2.69
2022-11-21T17:38:20.590Z,2.71
2022-11-21T17:40:47.306Z,2.67
2022-11-21T17:43:13.967Z,2.63
2022-11-21T17:45:40.683Z,2.64
2022-11-21T17:48:07.288Z,2.59
2022-11-21T17:50:33.938Z,2.57
2022-11-21T17:53:00.560Z,2.53
2022-11-21T17:55:27.224Z,2.53
2022-11-21T17:57:53.848Z,2.50
2022-11-21T18:00:20.534Z,2.52
2022-11-21T18:02:47.376Z,2.50
2022-11-21T18:05:14.153Z,2.44
2022-11-21T18:07:40.900Z,2.37
2022-11-21T18:10:35.286Z,2.33
2022-11-21T18:12:54.428Z,2.37
2022-11-21T18:15:21.089Z,2.39
2022-11-21T18:17:47.747Z,2.40
2022-11-21T18:20:14.619Z,2.38
2022-11-21T18:22:41.272Z,2.34
2022-11-21T18:25:08.191Z,2.35
2022-11-21T18:27:34.803Z,2.34
2022-11-21T18:30:01.473Z,2.33
2022-11-21T18:32:29.306Z,2.27
2022-11-21T18:34:55.990Z,2.28
2022-11-21T18:37:22.670Z,2.27
2022-11-21T18:39:49.286Z,2.26
2022-11-21T18:42:16.020Z,2.24
2022-11-21T18:44:43.083Z,2.18
2022-11-21T18:47:20.162Z,2.16
2022-11-21T18:49:48.015Z,2.15
2022-11-21T18:52:14.874Z,2.16
2022-11-21T18:54:41.517Z,2.16
2022-11-21T18:57:08.189Z,2.20
2022-11-21T18:59:34.781Z,2.23
2022-11-21T19:02:01.571Z,2.22
2022-11-21T19:04:28.874Z,2.21
2022-11-21T19:06:55.528Z,2.22
2022-11-21T19:09:22.241Z,2.23
2022-11-21T19:11:49.066Z,2.20
2022-11-21T19:14:15.710Z,2.21
2022-11-21T19:16:42.298Z,2.18
2022-11-21T19:21:57.354Z,2.17
2022-11-21T19:24:23.977Z,2.17
2022-11-21T19:26:50.748Z,2.13
2022-11-21T19:29:18.125Z,2.13
2022-11-21T19:31:46.085Z,2.13
2022-11-21T19:34:14.866Z,2.09
2022-11-21T19:36:42.293Z,2.06
2022-11-21T19:39:09.264Z,2.07
2022-11-21T19:41:36.446Z,2.05
2022-11-21T19:44:03.803Z,2.03
2022-11-21T19:46:33.388Z,1.97
2022-11-21T19:49:00.736Z,1.99
2022-11-21T19:51:30.873Z,1.95
2022-11-21T19:53:58.069Z,1.94
2022-11-21T19:56:26.272Z,1.91
2022-11-21T19:58:53.715Z,1.89
2022-11-21T20:01:23.176Z,1.81
2022-11-21T20:03:52.310Z,1.78
2022-11-21T20:06:22.715Z,1.74
2022-11-21T20:08:53.826Z,1.75
2022-11-21T20:11:21.594Z,1.72
2022-11-21T20:13:49.507Z,1.69
2022-11-21T20:16:23.352Z,1.65
2022-11-21T20:18:51.170Z,1.61
2022-11-21T20:21:18.947Z,1.56
2022-11-21T20:23:46.295Z,1.54
2022-11-21T20:26:14.101Z,1.53
2022-11-21T20:28:40.867Z,1.52
2022-11-21T20:31:13.078Z,1.45
2022-11-21T20:33:42.494Z,1.44
2022-11-21T20:36:16.221Z,1.45
2022-11-21T20:38:44.128Z,1.41
2022-11-21T20:41:10.843Z,1.31
2022-11-21T20:44:14.800Z,1.31
2022-11-21T20:46:24.453Z,1.22
2022-11-21T20:48:51.337Z,1.20
2022-11-21T20:52:43.301Z,1.22
2022-11-21T20:54:04.903Z,1.22
2022-11-21T20:56:34.646Z,1.20
2022-11-21T20:59:02.062Z,1.21
2022-11-21T21:01:28.971Z,1.10
2022-11-21T21:03:55.812Z,1.13
2022-11-21T21:06:24.276Z,1.08
2022-11-21T21:08:51.932Z,1.05
2022-11-21T21:11:49.748Z,1.10
2022-11-21T21:14:08.039Z,1.09
2022-11-21T21:16:34.687Z,1.06
2022-11-21T21:19:01.319Z,1.09
2022-11-21T21:21:30.806Z,1.09
2022-11-21T21:23:59.021Z,1.10
2022-11-21T21:26:28.964Z,1.06
2022-11-21T21:28:57.264Z,0.97
2022-11-21T21:31:24.222Z,0.73
2022-11-21T21:33:50.885Z,0.75
2022-11-21T21:36:20.372Z,0.75
2022-11-21T21:38:51.528Z,0.82
2022-11-21T21:41:18.834Z,0.88
2022-11-21T21:43:45.552Z,0.90
2022-11-21T21:46:14.266Z,0.93
2022-11-21T21:48:43.095Z,0.90
2022-11-21T21:51:15.416Z,0.92
2022-11-21T21:53:43.270Z,0.85
2022-11-21T21:56:10.823Z,0.87
2022-11-21T21:58:40.326Z,0.82
2022-11-21T22:01:10.867Z,0.80
2022-11-21T22:03:38.409Z,0.81
2022-11-21T22:06:07.573Z,0.79
2022-11-21T22:08:35.823Z,0.76
2022-11-21T22:11:20.007Z,0.75
2022-11-21T22:13:54.989Z,0.76
2022-11-21T22:16:21.746Z,0.77
2022-11-21T22:18:48.390Z,0.76
2022-11-21T22:21:16.023Z,0.71
2022-11-21T22:24:02.390Z,0.71
2022-11-21T22:26:30.064Z,0.72
2022-11-21T22:28:57.466Z,0.70
2022-11-21T22:31:24.144Z,0.68
2022-11-21T22:33:50.756Z,0.69
2022-11-21T22:36:18.610Z,0.63
2022-11-21T22:38:46.139Z,0.64
2022-11-21T22:41:15.255Z,0.62
2022-11-21T22:43:42.069Z,0.64
2022-11-21T22:46:12.513Z,0.62
2022-11-21T22:48:39.912Z,0.59
2022-11-21T22:51:07.689Z,0.56
2022-11-21T22:53:39.916Z,0.58
2022-11-21T22:56:10.330Z,0.57
2022-11-21T22:58:39.951Z,0.60
2022-11-21T23:01:06.596Z,0.56
2022-11-21T23:03:34.602Z,0.54
2022-11-21T23:06:02.525Z,0.56
2022-11-21T23:08:29.871Z,0.52
2022-11-21T23:11:05.481Z,0.54
2022-11-21T23:13:33.006Z,0.47
2022-11-21T23:15:59.730Z,0.45
2022-11-21T23:18:26.757Z,0.42
2022-11-21T23:20:53.480Z,0.41
2022-11-21T23:23:20.366Z,0.40
2022-11-21T23:25:48.105Z,0.40
2022-11-21T23:28:14.698Z,0.40
2022-11-21T23:30:43.313Z,0.41
2022-11-21T23:33:10.107Z,0.43
2022-11-21T23:35:37.533Z,0.43
2022-11-21T23:38:04.457Z,0.47
2022-11-21T23:40:31.583Z,0.48
2022-11-21T23:42:58.219Z,0.42
2022-11-21T23:45:25.027Z,0.44
2022-11-21T23:47:51.614Z,0.45
2022-11-21T23:50:19.600Z,0.45
2022-11-21T23:52:47.390Z,0.43
2022-11-21T23:55:14.608Z,0.26
2022-11-21T23:57:41.234Z,0.27
